Terminal Aerodrome Forecast
Issued by NWS

Current Version | Previous Version | Text Only | Print | Product List | Glossary On
Versions: 1 2 3 4 5 6 7 8 9 10 11 12
000
FTUS42 KGSP 161138
TAFGMU
TAF
KGMU 161138Z 1612/1712 21003KT P6SM SCT250
     FM161600 21006KT P6SM SCT100 BKN250
     FM170100 22005KT P6SM SCT050 BKN100 PROB30 1702/1706 4SM -RASN
      OVC025
     FM170600 32006KT 6SM -SN OVC026
      TEMPO 1707/1711 3SM -SN OVC015
     FM171100 34007KT P6SM OVC040=

USA.gov is the U.S. government's official web portal to all federal, state and local government web resources and services.